createdAt,value
2023-09-27T00:00:47.350Z,2.70
2023-09-27T00:03:15.625Z,3.07
2023-09-27T00:05:44.104Z,2.90
2023-09-27T00:08:13.791Z,2.70
2023-09-27T00:10:42.381Z,2.50
2023-09-27T00:13:10.716Z,2.63
2023-09-27T00:15:39.007Z,3.00
2023-09-27T00:18:10.961Z,2.77
2023-09-27T00:20:39.280Z,2.97
2023-09-27T00:23:08.490Z,3.13
2023-09-27T00:25:38.183Z,3.20
2023-09-27T00:28:06.538Z,3.30
2023-09-27T00:30:34.804Z,3.67
2023-09-27T00:33:03.085Z,3.40
2023-09-27T00:35:31.423Z,2.83
2023-09-27T00:38:00.349Z,3.60
2023-09-27T00:40:29.168Z,2.80
2023-09-27T00:42:59.930Z,4.00
2023-09-27T00:45:28.194Z,3.23
2023-09-27T00:47:56.483Z,3.47
2023-09-27T00:50:25.880Z,2.93
2023-09-27T00:52:54.297Z,3.33
2023-09-27T00:55:22.575Z,2.83
2023-09-27T00:57:51.791Z,2.90
2023-09-27T01:00:23.100Z,3.00
2023-09-27T01:02:51.584Z,3.07
2023-09-27T01:05:20.293Z,3.03
2023-09-27T01:07:48.660Z,3.07
2023-09-27T01:10:17.119Z,2.67
2023-09-27T01:12:45.463Z,3.17
2023-09-27T01:15:13.771Z,2.80
2023-09-27T01:17:55.749Z,3.40
2023-09-27T01:20:24.220Z,3.10
2023-09-27T01:22:58.130Z,2.87
2023-09-27T01:25:28.959Z,2.70
2023-09-27T01:27:57.212Z,2.80
2023-09-27T01:30:25.898Z,2.77
2023-09-27T01:32:54.157Z,3.00
2023-09-27T01:35:22.508Z,2.90
2023-09-27T01:37:50.819Z,3.07
2023-09-27T01:40:23.579Z,2.97
2023-09-27T01:42:51.806Z,2.90
2023-09-27T01:45:20.086Z,2.93
2023-09-27T01:47:48.332Z,2.60
2023-09-27T01:50:19.711Z,2.80
2023-09-27T01:52:48.153Z,2.80
2023-09-27T01:55:16.382Z,2.90
2023-09-27T01:57:46.450Z,2.80
2023-09-27T02:00:15.604Z,3.00
2023-09-27T02:02:44.024Z,2.77
2023-09-27T02:05:12.952Z,2.70
2023-09-27T02:07:41.837Z,3.13
2023-09-27T02:10:10.394Z,2.83
2023-09-27T02:12:39.095Z,2.57
2023-09-27T02:15:10.016Z,2.40
2023-09-27T02:17:38.986Z,2.90
2023-09-27T02:20:08.887Z,2.53
2023-09-27T02:22:37.308Z,2.30
2023-09-27T02:25:06.489Z,2.60
2023-09-27T02:27:36.267Z,2.83
2023-09-27T02:30:06.759Z,2.57
2023-09-27T02:32:36.583Z,2.93
2023-09-27T02:35:05.840Z,2.50
2023-09-27T02:37:34.189Z,2.87
2023-09-27T02:40:02.443Z,2.60
2023-09-27T02:42:31.146Z,2.80
2023-09-27T02:44:59.388Z,2.60
2023-09-27T02:47:27.658Z,2.90
2023-09-27T02:49:57.347Z,2.90
2023-09-27T02:52:25.588Z,2.70
2023-09-27T02:54:53.797Z,2.70
2023-09-27T02:57:22.057Z,2.70
2023-09-27T02:59:50.266Z,2.87
2023-09-27T03:02:18.543Z,2.90
2023-09-27T03:04:47.495Z,2.70
2023-09-27T03:07:17.256Z,2.70
2023-09-27T03:09:46.042Z,2.60
2023-09-27T03:12:14.458Z,2.67
2023-09-27T03:14:43.006Z,3.07
2023-09-27T03:17:11.278Z,2.80
2023-09-27T03:19:39.533Z,3.00
2023-09-27T03:22:08.254Z,2.33
2023-09-27T03:24:39.036Z,2.90
2023-09-27T03:27:09.775Z,2.53
2023-09-27T03:29:38.139Z,2.50
2023-09-27T03:32:06.638Z,2.50
2023-09-27T03:34:34.935Z,3.27
2023-09-27T03:37:03.225Z,2.80
2023-09-27T03:39:36.713Z,2.80
2023-09-27T03:42:06.691Z,2.77
2023-09-27T03:44:35.359Z,3.00
2023-09-27T03:47:03.743Z,3.00
2023-09-27T03:49:32.025Z,2.67
2023-09-27T03:52:00.293Z,2.70
2023-09-27T03:54:28.550Z,3.03
2023-09-27T03:56:57.036Z,2.90
2023-09-27T03:59:26.693Z,3.53
2023-09-27T04:01:55.276Z,3.27
2023-09-27T04:04:23.669Z,3.67
2023-09-27T04:06:52.691Z,2.70
2023-09-27T04:09:20.984Z,3.20
2023-09-27T04:11:49.248Z,2.87
2023-09-27T04:14:17.536Z,3.00
2023-09-27T04:16:47.181Z,3.10
2023-09-27T04:19:15.510Z,2.87
2023-09-27T04:21:43.749Z,3.07
2023-09-27T04:24:12.436Z,3.07
2023-09-27T04:26:40.726Z,3.10
2023-09-27T04:29:09.078Z,3.30
2023-09-27T04:31:37.529Z,3.10
2023-09-27T04:34:07.249Z,2.97
2023-09-27T04:36:35.548Z,3.03
2023-09-27T04:39:06.252Z,2.63
2023-09-27T04:41:34.517Z,3.13
2023-09-27T04:44:02.846Z,2.90
2023-09-27T04:46:31.111Z,3.07
2023-09-27T04:48:59.505Z,3.23
2023-09-27T04:51:29.130Z,3.27
2023-09-27T04:54:01.759Z,2.87
2023-09-27T04:56:30.652Z,3.13
2023-09-27T04:58:59.766Z,2.97
2023-09-27T05:01:28.157Z,3.13
2023-09-27T05:03:56.515Z,3.30
2023-09-27T05:06:24.769Z,2.93
2023-09-27T05:08:54.582Z,2.67
2023-09-27T05:11:23.313Z,3.50
2023-09-27T05:13:51.636Z,3.23
2023-09-27T05:16:20.102Z,3.30
2023-09-27T05:18:48.374Z,2.80
2023-09-27T05:21:16.606Z,3.40
2023-09-27T05:23:45.070Z,3.07
2023-09-27T05:26:14.756Z,2.97
2023-09-27T05:28:43.072Z,3.13
2023-09-27T05:31:11.578Z,3.50
2023-09-27T05:33:39.908Z,3.63
2023-09-27T05:36:08.294Z,3.00
2023-09-27T05:38:36.618Z,3.10
2023-09-27T05:41:05.321Z,3.13
2023-09-27T05:43:34.932Z,2.90
2023-09-27T05:46:04.060Z,2.87
2023-09-27T05:48:32.750Z,3.07
2023-09-27T05:51:01.063Z,3.03
2023-09-27T05:53:29.355Z,3.23
2023-09-27T05:55:57.595Z,3.07
2023-09-27T05:58:25.846Z,2.90
2023-09-27T06:00:55.898Z,3.10
2023-09-27T06:03:24.809Z,3.17
2023-09-27T06:05:53.392Z,2.80
2023-09-27T06:08:21.664Z,2.80
2023-09-27T06:10:50.160Z,2.50
2023-09-27T06:13:18.395Z,3.50
2023-09-27T06:15:47.260Z,3.27
2023-09-27T06:18:17.082Z,3.03
2023-09-27T06:20:45.654Z,3.00
2023-09-27T06:23:13.981Z,2.50
2023-09-27T06:25:44.826Z,2.97
2023-09-27T06:28:14.653Z,2.67
2023-09-27T06:30:42.953Z,2.80
2023-09-27T06:33:11.251Z,2.90
2023-09-27T06:35:41.078Z,3.10
2023-09-27T06:38:09.987Z,2.80
2023-09-27T06:40:38.267Z,2.53
2023-09-27T06:43:06.904Z,2.80
2023-09-27T06:45:38.009Z,2.60
2023-09-27T06:48:06.643Z,2.70
2023-09-27T06:50:35.009Z,3.23
2023-09-27T06:53:21.518Z,3.00
2023-09-27T06:55:53.693Z,3.10
2023-09-27T06:58:24.340Z,2.30
2023-09-27T07:00:52.914Z,2.80
2023-09-27T07:03:26.183Z,3.20
2023-09-27T07:05:55.034Z,2.67
2023-09-27T07:08:24.723Z,2.77
2023-09-27T07:10:53.058Z,2.67
2023-09-27T07:13:21.323Z,2.53
2023-09-27T07:15:49.613Z,2.60
2023-09-27T07:18:18.013Z,2.60
2023-09-27T07:20:46.639Z,2.90
2023-09-27T07:23:16.748Z,3.13
2023-09-27T07:25:46.634Z,2.93
2023-09-27T07:28:15.229Z,2.67
2023-09-27T07:30:43.519Z,2.80
2023-09-27T07:33:13.206Z,2.00
2023-09-27T07:35:43.899Z,2.40
2023-09-27T07:38:13.020Z,2.40
2023-09-27T07:40:41.326Z,2.30
2023-09-27T07:43:11.663Z,2.43
2023-09-27T07:45:43.634Z,2.40
2023-09-27T07:48:12.437Z,2.47
2023-09-27T07:50:41.458Z,2.53
2023-09-27T07:53:10.610Z,2.27
2023-09-27T07:55:49.842Z,2.20
2023-09-27T07:58:19.790Z,2.17
2023-09-27T08:00:48.125Z,2.43
2023-09-27T08:03:16.564Z,2.00
2023-09-27T08:05:46.188Z,1.90
2023-09-27T08:08:15.080Z,1.90
2023-09-27T08:10:44.436Z,1.80
2023-09-27T08:13:13.891Z,1.87
2023-09-27T08:15:44.293Z,1.90
2023-09-27T08:18:13.809Z,1.80
2023-09-27T08:20:42.215Z,1.93
2023-09-27T08:23:10.481Z,2.10
2023-09-27T08:25:39.163Z,1.87
2023-09-27T08:28:08.021Z,1.80
2023-09-27T08:30:36.353Z,1.93
2023-09-27T08:33:06.316Z,2.30
2023-09-27T08:35:34.666Z,2.03
2023-09-27T08:38:03.084Z,2.00
2023-09-27T08:40:31.378Z,1.90
2023-09-27T08:43:01.194Z,1.90
2023-09-27T08:45:30.828Z,1.70
2023-09-27T08:47:59.156Z,1.80
2023-09-27T08:50:30.182Z,1.83
2023-09-27T08:52:58.890Z,1.60
2023-09-27T08:55:27.125Z,1.97
2023-09-27T08:57:56.019Z,1.80
2023-09-27T09:00:28.159Z,1.93
2023-09-27T09:02:59.863Z,2.00
2023-09-27T09:05:31.369Z,1.90
2023-09-27T09:08:01.363Z,1.73
2023-09-27T09:10:30.438Z,1.63
2023-09-27T09:13:00.563Z,1.67
2023-09-27T09:15:29.841Z,1.70
2023-09-27T09:17:59.875Z,1.80
2023-09-27T09:20:34.054Z,1.80
2023-09-27T09:23:08.358Z,1.90
2023-09-27T09:25:45.147Z,1.73
2023-09-27T09:28:14.981Z,1.77
2023-09-27T09:30:47.338Z,1.88
2023-09-27T09:33:18.687Z,1.77
2023-09-27T09:35:49.026Z,1.88
2023-09-27T09:38:26.112Z,1.80
2023-09-27T09:40:55.075Z,1.88
2023-09-27T09:43:33.297Z,1.75
2023-09-27T09:46:04.435Z,1.52
2023-09-27T09:48:34.646Z,1.90
2023-09-27T09:51:08.631Z,1.67
2023-09-27T09:53:41.498Z,1.70
2023-09-27T09:58:45.649Z,2.00
2023-09-27T10:01:16.385Z,1.90
2023-09-27T10:03:49.369Z,1.90
2023-09-27T10:06:32.341Z,1.60
2023-09-27T10:09:10.302Z,1.92
2023-09-27T10:11:39.365Z,1.77
2023-09-27T10:14:08.077Z,1.70
2023-09-27T10:16:36.541Z,2.10
2023-09-27T10:19:06.578Z,1.90
2023-09-27T10:21:37.460Z,1.87
2023-09-27T10:24:08.250Z,1.77
2023-09-27T10:26:39.371Z,1.93
2023-09-27T10:29:16.502Z,2.03
2023-09-27T10:32:03.695Z,2.23
2023-09-27T10:34:41.457Z,2.10
2023-09-27T10:37:19.211Z,2.33
2023-09-27T10:40:13.248Z,2.30
2023-09-27T10:42:43.635Z,2.43
2023-09-27T10:45:12.304Z,2.17
2023-09-27T10:47:40.847Z,2.00
2023-09-27T10:50:10.371Z,2.30
2023-09-27T10:52:41.169Z,2.10
2023-09-27T10:55:13.516Z,2.07
2023-09-27T10:57:43.061Z,1.90
2023-09-27T11:00:13.117Z,2.10
2023-09-27T11:02:43.058Z,1.97
2023-09-27T11:05:11.684Z,2.17
2023-09-27T11:07:48.473Z,2.03
2023-09-27T11:10:20.700Z,1.70
2023-09-27T11:12:48.952Z,2.30
2023-09-27T11:15:24.817Z,2.13
2023-09-27T11:17:59.328Z,2.13
2023-09-27T11:20:27.699Z,1.63
2023-09-27T11:23:00.621Z,2.17
2023-09-27T11:25:29.706Z,1.90
2023-09-27T11:27:58.119Z,2.00
2023-09-27T11:30:27.471Z,1.90
2023-09-27T11:32:55.998Z,2.20
2023-09-27T11:35:24.395Z,2.40
2023-09-27T11:37:52.748Z,2.13
2023-09-27T11:40:35.136Z,1.97
2023-09-27T11:43:04.125Z,2.03
2023-09-27T11:45:33.017Z,2.23
2023-09-27T11:48:01.373Z,2.87
2023-09-27T11:50:29.762Z,2.00
2023-09-27T11:52:58.014Z,2.17
2023-09-27T11:55:26.289Z,2.43
2023-09-27T11:57:59.330Z,2.07
2023-09-27T12:00:27.755Z,2.10
2023-09-27T12:02:57.796Z,1.83
2023-09-27T12:05:27.844Z,1.80
2023-09-27T12:07:57.151Z,2.00
2023-09-27T12:10:25.789Z,2.13
2023-09-27T12:12:55.556Z,2.10
2023-09-27T12:15:25.366Z,2.20
2023-09-27T12:17:53.703Z,2.00
2023-09-27T12:20:36.214Z,1.60
2023-09-27T12:23:08.599Z,1.97
2023-09-27T12:25:37.504Z,1.87
2023-09-27T12:28:06.094Z,1.80
2023-09-27T12:30:35.758Z,1.93
2023-09-27T12:33:04.188Z,2.07
2023-09-27T12:35:33.632Z,2.30
2023-09-27T12:38:05.205Z,2.20
2023-09-27T12:40:34.363Z,2.53
2023-09-27T12:43:02.746Z,2.20
2023-09-27T12:45:31.559Z,2.30
2023-09-27T12:48:01.913Z,2.20
2023-09-27T12:50:31.395Z,2.10
2023-09-27T12:52:59.738Z,2.23
2023-09-27T12:55:28.231Z,2.10
2023-09-27T12:57:56.489Z,2.23
2023-09-27T13:00:24.790Z,2.10
2023-09-27T13:02:53.541Z,1.97
2023-09-27T13:05:23.435Z,2.10
2023-09-27T13:07:51.685Z,2.03
2023-09-27T13:10:20.722Z,2.03
2023-09-27T13:12:49.118Z,2.10
2023-09-27T13:15:17.439Z,1.87
2023-09-27T13:17:45.778Z,1.93
2023-09-27T13:20:14.318Z,1.83
2023-09-27T13:22:43.931Z,1.80
2023-09-27T13:25:12.730Z,1.73
2023-09-27T13:27:41.765Z,2.57
2023-09-27T13:30:29.269Z,2.13
2023-09-27T13:33:00.748Z,1.73
2023-09-27T13:35:29.731Z,1.67
2023-09-27T13:37:59.512Z,1.90
2023-09-27T13:40:27.895Z,1.73
2023-09-27T13:42:56.188Z,1.63
2023-09-27T13:45:24.579Z,1.87
2023-09-27T13:47:52.951Z,1.93
2023-09-27T13:50:21.393Z,1.67
2023-09-27T13:52:49.878Z,1.83
2023-09-27T13:55:19.649Z,2.47
2023-09-27T13:57:49.121Z,2.03
2023-09-27T14:00:18.757Z,1.80
2023-09-27T14:02:47.175Z,1.87
2023-09-27T14:05:15.542Z,1.93
2023-09-27T14:07:44.193Z,2.27
2023-09-27T14:10:13.658Z,1.80
2023-09-27T14:12:43.216Z,2.20
2023-09-27T14:15:13.213Z,1.60
2023-09-27T14:17:43.936Z,1.80
2023-09-27T14:20:15.865Z,1.80
2023-09-27T14:22:45.173Z,1.83
2023-09-27T14:25:14.516Z,1.63
2023-09-27T14:27:44.300Z,1.90
2023-09-27T14:30:13.229Z,2.10
2023-09-27T14:32:43.273Z,2.00
2023-09-27T14:35:12.993Z,1.40
2023-09-27T14:37:42.363Z,1.73
2023-09-27T14:40:11.156Z,1.83
2023-09-27T14:42:40.932Z,1.90
2023-09-27T14:45:28.426Z,1.83
2023-09-27T14:48:00.127Z,1.83
2023-09-27T14:50:28.926Z,1.97
2023-09-27T14:52:57.179Z,1.83
2023-09-27T14:55:25.877Z,1.90
2023-09-27T14:57:54.186Z,1.70
2023-09-27T15:00:24.311Z,2.30
2023-09-27T15:02:52.648Z,2.00
2023-09-27T15:05:21.548Z,2.20
2023-09-27T15:07:50.160Z,1.90
2023-09-27T15:10:18.520Z,1.87
2023-09-27T15:12:48.477Z,2.00
2023-09-27T15:15:16.839Z,1.87
2023-09-27T15:17:47.127Z,1.73
2023-09-27T15:20:15.895Z,2.20
2023-09-27T15:22:44.289Z,1.57
2023-09-27T15:25:13.274Z,1.83
2023-09-27T15:27:41.593Z,1.90
2023-09-27T15:30:11.611Z,1.90
2023-09-27T15:32:40.489Z,2.10
2023-09-27T15:35:11.352Z,2.10
2023-09-27T15:37:39.646Z,2.00
2023-09-27T15:40:10.506Z,2.33
2023-09-27T15:42:39.422Z,2.30
2023-09-27T15:45:10.190Z,2.40
2023-09-27T15:47:38.451Z,2.10
2023-09-27T15:50:07.211Z,2.03
2023-09-27T15:52:37.140Z,2.33
2023-09-27T15:55:07.425Z,2.10
2023-09-27T15:57:35.681Z,2.40
2023-09-27T16:00:05.239Z,2.17
2023-09-27T16:02:33.557Z,2.20
2023-09-27T16:05:02.983Z,2.20
2023-09-27T16:07:31.369Z,2.03
2023-09-27T16:10:01.054Z,2.10
2023-09-27T16:12:29.318Z,2.00
2023-09-27T16:14:57.553Z,2.03
2023-09-27T16:17:25.466Z,2.33
2023-09-27T16:19:53.455Z,2.70
2023-09-27T16:22:21.404Z,3.00
2023-09-27T16:24:49.696Z,3.03
2023-09-27T16:27:20.492Z,2.50
2023-09-27T16:29:48.803Z,2.40
2023-09-27T16:32:17.623Z,2.70
2023-09-27T16:34:45.964Z,2.10
2023-09-27T16:37:14.528Z,1.97
2023-09-27T16:39:43.267Z,2.60
2023-09-27T16:42:11.492Z,1.97
2023-09-27T16:44:41.090Z,2.23
2023-09-27T16:47:09.345Z,2.60
2023-09-27T16:49:37.599Z,2.10
2023-09-27T16:52:06.004Z,2.20
2023-09-27T16:54:33.890Z,2.33
2023-09-27T16:57:01.829Z,2.50
2023-09-27T16:59:29.707Z,2.87
2023-09-27T17:01:59.014Z,2.40
2023-09-27T17:04:27.076Z,2.07
2023-09-27T17:06:55.331Z,2.03
2023-09-27T17:09:23.289Z,2.20
2023-09-27T17:11:54.205Z,2.20
2023-09-27T17:14:23.263Z,2.60
2023-09-27T17:16:51.199Z,2.27
2023-09-27T17:19:25.230Z,2.30
2023-09-27T17:21:54.417Z,2.40
2023-09-27T17:24:23.028Z,2.33
2023-09-27T17:26:51.390Z,1.93
2023-09-27T17:29:19.277Z,2.17
2023-09-27T17:31:49.744Z,2.10
2023-09-27T17:34:17.771Z,1.90
2023-09-27T17:36:47.636Z,2.27
2023-09-27T17:39:16.782Z,2.10
2023-09-27T17:41:45.130Z,1.83
2023-09-27T17:44:13.362Z,2.10
2023-09-27T17:46:41.675Z,2.00
2023-09-27T17:49:10.008Z,2.00
2023-09-27T17:51:39.246Z,2.00
2023-09-27T17:54:11.978Z,2.07
2023-09-27T17:56:40.317Z,2.10
2023-09-27T17:59:08.737Z,2.10
2023-09-27T18:01:36.775Z,2.20
2023-09-27T18:04:04.854Z,2.10
2023-09-27T18:06:33.253Z,3.00
2023-09-27T18:09:01.483Z,2.60
2023-09-27T18:11:31.364Z,2.13
2023-09-27T18:13:59.699Z,2.20
2023-09-27T18:16:29.875Z,2.27
2023-09-27T18:18:58.194Z,2.27
2023-09-27T18:21:26.123Z,2.37
2023-09-27T18:23:55.279Z,2.60
2023-09-27T18:26:24.546Z,2.53
2023-09-27T18:28:55.362Z,2.53
2023-09-27T18:31:26.566Z,3.07
2023-09-27T18:33:54.811Z,2.60
2023-09-27T18:36:23.333Z,2.60
2023-09-27T18:38:51.556Z,3.10
2023-09-27T18:41:19.810Z,2.87
2023-09-27T18:43:48.843Z,2.87
2023-09-27T18:46:18.589Z,2.67
2023-09-27T18:48:48.446Z,2.30
2023-09-27T18:51:21.636Z,2.33
2023-09-27T18:53:50.709Z,2.60
2023-09-27T18:56:19.783Z,2.70
2023-09-27T18:58:48.896Z,2.47
2023-09-27T19:01:18.630Z,2.57
2023-09-27T19:03:47.037Z,2.77
2023-09-27T19:06:15.615Z,2.60
2023-09-27T19:08:44.142Z,2.30
2023-09-27T19:11:18.850Z,2.87
2023-09-27T19:13:47.281Z,2.60
2023-09-27T19:16:15.655Z,2.60
2023-09-27T19:18:45.347Z,2.60
2023-09-27T19:21:13.613Z,2.77
2023-09-27T19:23:41.983Z,2.37
2023-09-27T19:26:10.603Z,2.63
2023-09-27T19:28:39.400Z,2.40
2023-09-27T19:31:10.034Z,2.47
2023-09-27T19:33:42.661Z,2.40
2023-09-27T19:36:15.616Z,2.60
2023-09-27T19:38:43.845Z,3.00
2023-09-27T19:41:12.118Z,2.20
2023-09-27T19:43:40.452Z,2.93
2023-09-27T19:46:08.831Z,2.40
2023-09-27T19:48:43.653Z,2.37
2023-09-27T19:51:22.101Z,2.60
2023-09-27T19:53:50.423Z,2.67
2023-09-27T19:56:18.742Z,2.80
2023-09-27T19:58:47.566Z,2.83
2023-09-27T20:01:28.189Z,2.23
2023-09-27T20:03:57.145Z,3.03
2023-09-27T20:06:26.874Z,2.90
2023-09-27T20:08:55.168Z,2.50
2023-09-27T20:11:23.458Z,2.60
2023-09-27T20:13:51.959Z,2.80
2023-09-27T20:16:20.433Z,2.77
2023-09-27T20:18:48.887Z,2.70
2023-09-27T20:21:17.388Z,2.37
2023-09-27T20:23:47.000Z,2.50
2023-09-27T20:26:15.606Z,2.30
2023-09-27T20:28:44.003Z,2.30
2023-09-27T20:31:12.293Z,2.17
2023-09-27T20:33:40.588Z,2.43
2023-09-27T20:36:13.372Z,2.50
2023-09-27T20:38:41.639Z,2.50
2023-09-27T20:41:11.446Z,2.53
2023-09-27T20:43:40.172Z,2.30
2023-09-27T20:46:15.339Z,2.80
2023-09-27T20:48:43.639Z,2.43
2023-09-27T20:51:12.244Z,2.43
2023-09-27T20:53:40.494Z,2.37
2023-09-27T20:56:10.273Z,2.47
2023-09-27T20:58:41.992Z,2.73
2023-09-27T21:01:21.874Z,2.23
2023-09-27T21:03:50.258Z,2.50
2023-09-27T21:06:24.807Z,2.80
2023-09-27T21:08:53.127Z,2.03
2023-09-27T21:11:21.369Z,2.70
2023-09-27T21:13:50.977Z,2.53
2023-09-27T21:16:19.220Z,2.57
2023-09-27T21:18:47.512Z,2.47
2023-09-27T21:21:15.763Z,2.30
2023-09-27T21:23:43.992Z,2.53
2023-09-27T21:26:13.079Z,3.20
2023-09-27T21:28:41.827Z,2.73
2023-09-27T21:31:14.511Z,2.60
2023-09-27T21:33:43.209Z,2.50
2023-09-27T21:36:11.768Z,2.77
2023-09-27T21:38:40.379Z,2.60
2023-09-27T21:41:08.853Z,2.50
2023-09-27T21:43:37.613Z,3.00
2023-09-27T21:46:16.136Z,2.30
2023-09-27T21:48:45.879Z,2.83
2023-09-27T21:51:15.406Z,2.70
2023-09-27T21:53:43.770Z,2.80
2023-09-27T21:56:12.354Z,2.70
2023-09-27T21:58:40.698Z,2.40
2023-09-27T22:01:11.977Z,2.63
2023-09-27T22:03:40.403Z,2.43
2023-09-27T22:06:11.466Z,2.47
2023-09-27T22:08:49.080Z,2.63
2023-09-27T22:11:17.984Z,2.57
2023-09-27T22:13:48.902Z,2.70
2023-09-27T22:16:17.530Z,2.63
2023-09-27T22:18:49.788Z,2.53
2023-09-27T22:21:25.749Z,2.60
2023-09-27T22:23:57.087Z,2.40
2023-09-27T22:26:26.448Z,2.70
2023-09-27T22:28:56.899Z,2.43
2023-09-27T22:31:31.478Z,2.83
2023-09-27T22:34:11.688Z,2.33
2023-09-27T22:36:43.363Z,2.40
2023-09-27T22:39:16.837Z,2.70
2023-09-27T22:41:46.805Z,2.17
2023-09-27T22:44:21.399Z,2.37
2023-09-27T22:46:50.983Z,2.23
2023-09-27T22:49:19.758Z,2.33
2023-09-27T22:51:49.381Z,1.97
2023-09-27T22:54:18.145Z,2.47
2023-09-27T22:56:46.890Z,2.30
2023-09-27T22:59:15.628Z,2.30
2023-09-27T23:01:44.647Z,2.10
2023-09-27T23:04:16.372Z,2.43
2023-09-27T23:06:46.967Z,2.50
2023-09-27T23:09:21.375Z,2.13
2023-09-27T23:11:50.863Z,2.30
2023-09-27T23:14:23.029Z,2.20
2023-09-27T23:16:51.124Z,2.10
2023-09-27T23:19:19.780Z,2.40
2023-09-27T23:21:49.449Z,2.50
2023-09-27T23:24:36.907Z,2.40
2023-09-27T23:27:06.089Z,2.10
2023-09-27T23:29:37.163Z,2.20
2023-09-27T23:32:15.402Z,2.10
2023-09-27T23:34:43.071Z,2.17
2023-09-27T23:37:14.491Z,2.13
2023-09-27T23:39:44.022Z,1.90
2023-09-27T23:42:26.678Z,2.20
2023-09-27T23:44:55.045Z,2.43
2023-09-27T23:47:24.767Z,2.10
2023-09-27T23:49:56.863Z,2.07
2023-09-27T23:52:25.859Z,2.40
2023-09-27T23:55:03.395Z,2.30
2023-09-27T23:57:33.199Z,1.80
